sensor_id;sensor_type;location;lat;lon;timestamp;pressure;altitude;pressure_sealevel;temperature;humidity
40940;BME280;26666;50.156;7.700;2023-05-07T00:03:35;100476.91;;;15.39;100.00
40940;BME280;26666;50.156;7.700;2023-05-07T00:08:38;100478.72;;;15.38;100.00
40940;BME280;26666;50.156;7.700;2023-05-07T00:13:40;100476.34;;;15.27;100.00
40940;BME280;26666;50.156;7.700;2023-05-07T00:18:41;100483.19;;;15.30;100.00
40940;BME280;26666;50.156;7.700;2023-05-07T00:23:44;100477.13;;;15.19;100.00
40940;BME280;26666;50.156;7.700;2023-05-07T00:28:46;100473.19;;;15.24;100.00
40940;BME280;26666;50.156;7.700;2023-05-07T00:33:48;100470.19;;;15.27;100.00
40940;BME280;26666;50.156;7.700;2023-05-07T00:38:50;100473.34;;;15.22;100.00
40940;BME280;26666;50.156;7.700;2023-05-07T00:43:52;100472.97;;;15.17;100.00
40940;BME280;26666;50.156;7.700;2023-05-07T00:48:54;100473.13;;;15.15;100.00
40940;BME280;26666;50.156;7.700;2023-05-07T00:53:57;100478.09;;;15.10;100.00
40940;BME280;26666;50.156;7.700;2023-05-07T00:59:00;100473.59;;;15.11;100.00
40940;BME280;26666;50.156;7.700;2023-05-07T01:04:02;100468.44;;;15.09;100.00
40940;BME280;26666;50.156;7.700;2023-05-07T01:09:06;100467.97;;;15.14;100.00
40940;BME280;26666;50.156;7.700;2023-05-07T01:14:08;100461.50;;;15.16;100.00
40940;BME280;26666;50.156;7.700;2023-05-07T01:19:11;100455.16;;;15.17;100.00
40940;BME280;26666;50.156;7.700;2023-05-07T01:24:15;100459.94;;;15.06;100.00
40940;BME280;26666;50.156;7.700;2023-05-07T01:29:16;100441.97;;;15.08;100.00
40940;BME280;26666;50.156;7.700;2023-05-07T01:34:19;100441.66;;;15.11;100.00
40940;BME280;26666;50.156;7.700;2023-05-07T01:39:26;100442.34;;;15.13;100.00
40940;BME280;26666;50.156;7.700;2023-05-07T01:44:28;100450.31;;;15.13;100.00
40940;BME280;26666;50.156;7.700;2023-05-07T01:49:30;100447.63;;;15.05;100.00
40940;BME280;26666;50.156;7.700;2023-05-07T01:54:33;100448.69;;;14.86;100.00
40940;BME280;26666;50.156;7.700;2023-05-07T01:59:35;100443.22;;;14.87;100.00
40940;BME280;26666;50.156;7.700;2023-05-07T02:04:36;100456.47;;;14.79;100.00
40940;BME280;26666;50.156;7.700;2023-05-07T02:09:39;100448.78;;;14.76;100.00
40940;BME280;26666;50.156;7.700;2023-05-07T02:14:41;100450.47;;;14.77;100.00
40940;BME280;26666;50.156;7.700;2023-05-07T02:19:43;100459.28;;;14.77;100.00
40940;BME280;26666;50.156;7.700;2023-05-07T02:24:46;100463.81;;;14.85;100.00
40940;BME280;26666;50.156;7.700;2023-05-07T02:29:48;100460.91;;;14.78;100.00
40940;BME280;26666;50.156;7.700;2023-05-07T02:34:50;100458.84;;;14.90;100.00
40940;BME280;26666;50.156;7.700;2023-05-07T02:39:53;100457.03;;;14.91;100.00
40940;BME280;26666;50.156;7.700;2023-05-07T02:44:54;100450.72;;;14.92;100.00
40940;BME280;26666;50.156;7.700;2023-05-07T02:49:56;100449.41;;;14.96;100.00
40940;BME280;26666;50.156;7.700;2023-05-07T02:54:59;100438.41;;;14.91;100.00
40940;BME280;26666;50.156;7.700;2023-05-07T03:00:10;100435.41;;;14.94;100.00
40940;BME280;26666;50.156;7.700;2023-05-07T03:05:12;100444.94;;;14.96;100.00
40940;BME280;26666;50.156;7.700;2023-05-07T03:10:15;100445.03;;;14.87;100.00
40940;BME280;26666;50.156;7.700;2023-05-07T03:15:17;100448.59;;;14.69;100.00
40940;BME280;26666;50.156;7.700;2023-05-07T03:20:19;100436.94;;;14.70;100.00
40940;BME280;26666;50.156;7.700;2023-05-07T03:25:22;100429.00;;;14.78;100.00
40940;BME280;26666;50.156;7.700;2023-05-07T03:30:24;100420.00;;;14.71;100.00
40940;BME280;26666;50.156;7.700;2023-05-07T03:35:26;100422.56;;;14.81;100.00
40940;BME280;26666;50.156;7.700;2023-05-07T03:40:29;100424.94;;;14.66;100.00
40940;BME280;26666;50.156;7.700;2023-05-07T03:45:31;100421.81;;;14.53;100.00
40940;BME280;26666;50.156;7.700;2023-05-07T03:50:32;100427.97;;;14.71;100.00
40940;BME280;26666;50.156;7.700;2023-05-07T03:55:35;100425.22;;;14.81;100.00
40940;BME280;26666;50.156;7.700;2023-05-07T04:00:37;100435.72;;;14.83;100.00
40940;BME280;26666;50.156;7.700;2023-05-07T04:05:39;100430.22;;;14.84;100.00
40940;BME280;26666;50.156;7.700;2023-05-07T04:10:42;100449.00;;;14.83;100.00
40940;BME280;26666;50.156;7.700;2023-05-07T04:15:43;100453.13;;;14.77;100.00
40940;BME280;26666;50.156;7.700;2023-05-07T04:20:45;100445.69;;;14.63;100.00
40940;BME280;26666;50.156;7.700;2023-05-07T04:25:48;100448.59;;;14.69;100.00
40940;BME280;26666;50.156;7.700;2023-05-07T04:30:50;100449.09;;;14.73;100.00
40940;BME280;26666;50.156;7.700;2023-05-07T04:35:51;100449.94;;;14.73;100.00
40940;BME280;26666;50.156;7.700;2023-05-07T04:40:55;100459.94;;;14.79;100.00
40940;BME280;26666;50.156;7.700;2023-05-07T04:45:56;100445.75;;;14.71;100.00
40940;BME280;26666;50.156;7.700;2023-05-07T04:50:58;100461.88;;;14.69;100.00
40940;BME280;26666;50.156;7.700;2023-05-07T04:56:01;100458.53;;;14.67;100.00
40940;BME280;26666;50.156;7.700;2023-05-07T05:01:03;100461.50;;;14.64;100.00
40940;BME280;26666;50.156;7.700;2023-05-07T05:06:05;100456.03;;;14.66;100.00
40940;BME280;26666;50.156;7.700;2023-05-07T05:11:08;100467.66;;;14.65;100.00
40940;BME280;26666;50.156;7.700;2023-05-07T05:16:09;100478.19;;;14.74;100.00
40940;BME280;26666;50.156;7.700;2023-05-07T05:21:11;100488.38;;;14.79;100.00
40940;BME280;26666;50.156;7.700;2023-05-07T05:26:14;100488.63;;;14.94;100.00
40940;BME280;26666;50.156;7.700;2023-05-07T05:31:16;100488.00;;;15.26;100.00
40940;BME280;26666;50.156;7.700;2023-05-07T05:36:18;100492.13;;;15.55;100.00
40940;BME280;26666;50.156;7.700;2023-05-07T05:41:21;100491.16;;;15.64;100.00
40940;BME280;26666;50.156;7.700;2023-05-07T05:46:23;100488.66;;;15.63;100.00
40940;BME280;26666;50.156;7.700;2023-05-07T05:51:25;100495.25;;;15.50;100.00
40940;BME280;26666;50.156;7.700;2023-05-07T05:56:28;100480.59;;;15.46;100.00
40940;BME280;26666;50.156;7.700;2023-05-07T06:01:30;100478.72;;;15.38;100.00
40940;BME280;26666;50.156;7.700;2023-05-07T06:06:32;100481.25;;;15.40;100.00
40940;BME280;26666;50.156;7.700;2023-05-07T06:11:35;100478.09;;;15.45;100.00
40940;BME280;26666;50.156;7.700;2023-05-07T06:16:36;100483.13;;;15.56;100.00
40940;BME280;26666;50.156;7.700;2023-05-07T06:21:39;100480.28;;;15.49;100.00
40940;BME280;26666;50.156;7.700;2023-05-07T06:26:42;100481.06;;;15.33;100.00
40940;BME280;26666;50.156;7.700;2023-05-07T06:31:43;100486.94;;;15.45;100.00
40940;BME280;26666;50.156;7.700;2023-05-07T06:36:45;100496.59;;;15.54;100.00
40940;BME280;26666;50.156;7.700;2023-05-07T06:41:48;100495.66;;;15.64;100.00
40940;BME280;26666;50.156;7.700;2023-05-07T06:46:50;100491.66;;;15.68;100.00
40940;BME280;26666;50.156;7.700;2023-05-07T06:51:51;100488.84;;;15.69;100.00
40940;BME280;26666;50.156;7.700;2023-05-07T06:56:54;100489.16;;;15.66;100.00
40940;BME280;26666;50.156;7.700;2023-05-07T07:01:56;100488.97;;;15.60;100.00
40940;BME280;26666;50.156;7.700;2023-05-07T07:06:58;100492.81;;;15.57;100.00
40940;BME280;26666;50.156;7.700;2023-05-07T07:12:01;100485.94;;;15.54;100.00
40940;BME280;26666;50.156;7.700;2023-05-07T07:17:03;100484.97;;;15.55;100.00
40940;BME280;26666;50.156;7.700;2023-05-07T07:22:04;100485.78;;;15.56;100.00
40940;BME280;26666;50.156;7.700;2023-05-07T07:27:07;100482.22;;;15.73;100.00
40940;BME280;26666;50.156;7.700;2023-05-07T07:32:09;100490.09;;;15.83;100.00
40940;BME280;26666;50.156;7.700;2023-05-07T07:37:11;100495.09;;;15.86;100.00
40940;BME280;26666;50.156;7.700;2023-05-07T07:42:17;100498.09;;;15.91;100.00
40940;BME280;26666;50.156;7.700;2023-05-07T07:47:19;100484.13;;;15.98;100.00
40940;BME280;26666;50.156;7.700;2023-05-07T07:52:20;100493.94;;;15.97;100.00
40940;BME280;26666;50.156;7.700;2023-05-07T07:57:23;100496.47;;;16.07;100.00
40940;BME280;26666;50.156;7.700;2023-05-07T08:02:25;100500.97;;;16.23;100.00
40940;BME280;26666;50.156;7.700;2023-05-07T08:07:27;100500.53;;;16.60;100.00
40940;BME280;26666;50.156;7.700;2023-05-07T08:12:30;100498.19;;;16.73;100.00
40940;BME280;26666;50.156;7.700;2023-05-07T08:17:32;100491.03;;;16.66;100.00
40940;BME280;26666;50.156;7.700;2023-05-07T08:22:33;100496.34;;;16.58;100.00
40940;BME280;26666;50.156;7.700;2023-05-07T08:27:37;100496.19;;;16.43;100.00
40940;BME280;26666;50.156;7.700;2023-05-07T08:32:38;100489.53;;;16.71;100.00
40940;BME280;26666;50.156;7.700;2023-05-07T08:37:40;100502.88;;;16.71;100.00
40940;BME280;26666;50.156;7.700;2023-05-07T08:42:44;100495.13;;;17.18;100.00
40940;BME280;26666;50.156;7.700;2023-05-07T08:47:50;100488.00;;;16.69;100.00
40940;BME280;26666;50.156;7.700;2023-05-07T08:52:53;100490.44;;;17.20;100.00
40940;BME280;26666;50.156;7.700;2023-05-07T08:57:59;100488.16;;;17.17;100.00
40940;BME280;26666;50.156;7.700;2023-05-07T09:03:02;100481.22;;;17.39;100.00
40940;BME280;26666;50.156;7.700;2023-05-07T09:08:06;100486.06;;;17.35;100.00
40940;BME280;26666;50.156;7.700;2023-05-07T09:13:09;100479.09;;;17.34;100.00
40940;BME280;26666;50.156;7.700;2023-05-07T09:18:13;100481.75;;;17.26;100.00
40940;BME280;26666;50.156;7.700;2023-05-07T09:23:17;100478.59;;;17.30;100.00
40940;BME280;26666;50.156;7.700;2023-05-07T09:28:20;100474.34;;;17.44;100.00
40940;BME280;26666;50.156;7.700;2023-05-07T09:33:27;100469.34;;;17.49;100.00
40940;BME280;26666;50.156;7.700;2023-05-07T09:38:28;100472.09;;;17.64;100.00
40940;BME280;26666;50.156;7.700;2023-05-07T09:43:33;100474.22;;;17.38;100.00
40940;BME280;26666;50.156;7.700;2023-05-07T09:48:40;100467.31;;;17.51;100.00
40940;BME280;26666;50.156;7.700;2023-05-07T09:53:43;100462.28;;;17.57;100.00
40940;BME280;26666;50.156;7.700;2023-05-07T09:58:46;100464.94;;;17.17;100.00
40940;BME280;26666;50.156;7.700;2023-05-07T10:03:49;100465.13;;;17.07;100.00
40940;BME280;26666;50.156;7.700;2023-05-07T10:08:52;100458.50;;;16.95;100.00
40940;BME280;26666;50.156;7.700;2023-05-07T10:13:56;100456.84;;;16.86;100.00
40940;BME280;26666;50.156;7.700;2023-05-07T10:18:58;100460.63;;;17.08;100.00
40940;BME280;26666;50.156;7.700;2023-05-07T10:24:04;100458.50;;;16.95;100.00
40940;BME280;26666;50.156;7.700;2023-05-07T10:29:12;100458.78;;;17.17;100.00
40940;BME280;26666;50.156;7.700;2023-05-07T10:34:19;100447.53;;;17.38;100.00
40940;BME280;26666;50.156;7.700;2023-05-07T10:39:22;100445.84;;;18.45;100.00
40940;BME280;26666;50.156;7.700;2023-05-07T10:44:29;100446.09;;;17.89;100.00
40940;BME280;26666;50.156;7.700;2023-05-07T10:49:31;100444.72;;;17.93;100.00
40940;BME280;26666;50.156;7.700;2023-05-07T10:54:42;100443.56;;;17.65;100.00
40940;BME280;26666;50.156;7.700;2023-05-07T10:59:48;100446.09;;;18.36;100.00
40940;BME280;26666;50.156;7.700;2023-05-07T11:05:19;100435.81;;;18.24;100.00
40940;BME280;26666;50.156;7.700;2023-05-07T11:10:21;100435.53;;;17.96;100.00
40940;BME280;26666;50.156;7.700;2023-05-07T11:15:39;100432.53;;;18.60;99.73
40940;BME280;26666;50.156;7.700;2023-05-07T11:20:48;100434.94;;;18.70;99.05
40940;BME280;26666;50.156;7.700;2023-05-07T11:25:50;100428.47;;;18.64;95.55
40940;BME280;26666;50.156;7.700;2023-05-07T11:30:54;100425.75;;;18.49;98.39
40940;BME280;26666;50.156;7.700;2023-05-07T11:35:56;100428.75;;;18.08;98.30
40940;BME280;26666;50.156;7.700;2023-05-07T11:40:59;100420.06;;;17.83;97.86
40940;BME280;26666;50.156;7.700;2023-05-07T11:46:09;100424.88;;;18.11;98.89
40940;BME280;26666;50.156;7.700;2023-05-07T11:51:12;100424.00;;;18.19;96.20
40940;BME280;26666;50.156;7.700;2023-05-07T11:56:14;100423.41;;;17.85;97.05
40940;BME280;26666;50.156;7.700;2023-05-07T12:01:18;100408.81;;;17.96;93.13
40940;BME280;26666;50.156;7.700;2023-05-07T12:06:19;100411.34;;;18.12;92.47
40940;BME280;26666;50.156;7.700;2023-05-07T12:11:23;100418.38;;;18.51;85.15
40940;BME280;26666;50.156;7.700;2023-05-07T12:16:27;100412.53;;;17.87;87.20
40940;BME280;26666;50.156;7.700;2023-05-07T12:21:29;100413.44;;;18.25;86.77
40940;BME280;26666;50.156;7.700;2023-05-07T12:26:31;100403.91;;;18.23;88.01
40940;BME280;26666;50.156;7.700;2023-05-07T12:31:34;100411.19;;;18.14;85.49
40940;BME280;26666;50.156;7.700;2023-05-07T12:36:36;100406.66;;;17.91;84.08
40940;BME280;26666;50.156;7.700;2023-05-07T12:41:54;100408.81;;;17.65;85.03
40940;BME280;26666;50.156;7.700;2023-05-07T12:47:01;100414.56;;;17.53;88.27
40940;BME280;26666;50.156;7.700;2023-05-07T12:52:03;100413.88;;;17.83;83.84
40940;BME280;26666;50.156;7.700;2023-05-07T12:57:06;100410.47;;;17.66;84.79
40940;BME280;26666;50.156;7.700;2023-05-07T13:02:09;100407.63;;;17.67;84.85
40940;BME280;26666;50.156;7.700;2023-05-07T13:07:11;100409.16;;;17.62;87.33
40940;BME280;26666;50.156;7.700;2023-05-07T13:12:13;100404.38;;;18.26;81.37
40940;BME280;26666;50.156;7.700;2023-05-07T13:17:16;100402.84;;;18.09;81.73
40940;BME280;26666;50.156;7.700;2023-05-07T13:22:18;100404.63;;;18.17;82.30
40940;BME280;26666;50.156;7.700;2023-05-07T13:27:19;100397.25;;;18.19;84.00
40940;BME280;26666;50.156;7.700;2023-05-07T13:32:23;100394.31;;;17.90;82.22
40940;BME280;26666;50.156;7.700;2023-05-07T13:37:24;100385.53;;;17.73;83.49
40940;BME280;26666;50.156;7.700;2023-05-07T13:42:26;100373.78;;;17.60;85.87
40940;BME280;26666;50.156;7.700;2023-05-07T13:47:29;100380.03;;;17.75;86.41
40940;BME280;26666;50.156;7.700;2023-05-07T13:52:31;100383.25;;;18.17;77.63
40940;BME280;26666;50.156;7.700;2023-05-07T13:57:32;100369.22;;;18.15;78.07
40940;BME280;26666;50.156;7.700;2023-05-07T14:02:35;100369.84;;;18.02;77.96
40940;BME280;26666;50.156;7.700;2023-05-07T14:07:37;100375.28;;;18.08;77.30
40940;BME280;26666;50.156;7.700;2023-05-07T14:12:39;100372.94;;;17.82;79.34
40940;BME280;26666;50.156;7.700;2023-05-07T14:17:42;100370.41;;;18.12;74.67
40940;BME280;26666;50.156;7.700;2023-05-07T14:22:44;100361.88;;;17.93;77.14
40940;BME280;26666;50.156;7.700;2023-05-07T14:27:49;100360.88;;;17.95;74.93
40940;BME280;26666;50.156;7.700;2023-05-07T14:32:52;100363.63;;;18.01;77.04
40940;BME280;26666;50.156;7.700;2023-05-07T14:37:53;100362.97;;;17.84;77.20
40940;BME280;26666;50.156;7.700;2023-05-07T14:42:55;100368.75;;;17.65;79.56
40940;BME280;26666;50.156;7.700;2023-05-07T14:47:58;100366.25;;;17.63;78.41
40940;BME280;26666;50.156;7.700;2023-05-07T14:53:00;100370.38;;;17.66;79.62
40940;BME280;26666;50.156;7.700;2023-05-07T14:58:01;100376.69;;;17.73;80.95
40940;BME280;26666;50.156;7.700;2023-05-07T15:03:07;100384.41;;;17.68;83.12
40940;BME280;26666;50.156;7.700;2023-05-07T15:08:09;100379.47;;;17.57;83.39
40940;BME280;26666;50.156;7.700;2023-05-07T15:13:12;100371.69;;;17.70;81.17
40940;BME280;26666;50.156;7.700;2023-05-07T15:18:18;100379.06;;;17.68;80.08
40940;BME280;26666;50.156;7.700;2023-05-07T15:23:23;100389.00;;;17.51;84.86
40940;BME280;26666;50.156;7.700;2023-05-07T15:28:25;100393.88;;;17.47;82.43
40940;BME280;26666;50.156;7.700;2023-05-07T15:33:28;100403.22;;;17.43;86.01
40940;BME280;26666;50.156;7.700;2023-05-07T15:38:29;100399.91;;;17.41;86.88
40940;BME280;26666;50.156;7.700;2023-05-07T15:43:31;100394.44;;;17.34;89.67
40940;BME280;26666;50.156;7.700;2023-05-07T15:48:34;100392.31;;;17.30;92.15
40940;BME280;26666;50.156;7.700;2023-05-07T15:53:36;100394.66;;;17.25;100.00
40940;BME280;26666;50.156;7.700;2023-05-07T15:58:37;100398.50;;;17.22;99.49
40940;BME280;26666;50.156;7.700;2023-05-07T16:03:40;100404.19;;;17.19;100.00
40940;BME280;26666;50.156;7.700;2023-05-07T16:08:42;100434.84;;;17.31;100.00
40940;BME280;26666;50.156;7.700;2023-05-07T16:13:44;100440.81;;;17.42;100.00
40940;BME280;26666;50.156;7.700;2023-05-07T16:18:47;100452.78;;;17.14;100.00
40940;BME280;26666;50.156;7.700;2023-05-07T16:23:49;100462.09;;;17.19;100.00
40940;BME280;26666;50.156;7.700;2023-05-07T16:28:51;100466.28;;;17.13;100.00
40940;BME280;26666;50.156;7.700;2023-05-07T16:33:54;100475.09;;;17.22;100.00
40940;BME280;26666;50.156;7.700;2023-05-07T16:38:56;100514.28;;;17.29;100.00
40940;BME280;26666;50.156;7.700;2023-05-07T16:43:57;100514.19;;;17.14;100.00
40940;BME280;26666;50.156;7.700;2023-05-07T16:49:02;100518.50;;;17.15;100.00
40940;BME280;26666;50.156;7.700;2023-05-07T16:54:04;100531.56;;;16.94;100.00
40940;BME280;26666;50.156;7.700;2023-05-07T16:59:06;100531.41;;;16.87;100.00
40940;BME280;26666;50.156;7.700;2023-05-07T17:04:09;100554.06;;;17.00;100.00
40940;BME280;26666;50.156;7.700;2023-05-07T17:09:10;100554.91;;;16.92;100.00
40940;BME280;26666;50.156;7.700;2023-05-07T17:14:12;100566.41;;;16.84;100.00
40940;BME280;26666;50.156;7.700;2023-05-07T17:19:15;100591.28;;;16.93;100.00
40940;BME280;26666;50.156;7.700;2023-05-07T17:24:17;100598.94;;;16.96;100.00
40940;BME280;26666;50.156;7.700;2023-05-07T17:29:18;100598.94;;;16.96;100.00
40940;BME280;26666;50.156;7.700;2023-05-07T17:34:22;100615.31;;;16.93;100.00
40940;BME280;26666;50.156;7.700;2023-05-07T17:39:23;100628.81;;;16.91;100.00
40940;BME280;26666;50.156;7.700;2023-05-07T17:44:25;100638.16;;;16.87;100.00
40940;BME280;26666;50.156;7.700;2023-05-07T17:49:28;100649.16;;;16.84;100.00
40940;BME280;26666;50.156;7.700;2023-05-07T17:54:30;100662.66;;;16.83;100.00
40940;BME280;26666;50.156;7.700;2023-05-07T17:59:32;100662.97;;;16.80;100.00
40940;BME280;26666;50.156;7.700;2023-05-07T18:04:36;100668.25;;;16.63;100.00
40940;BME280;26666;50.156;7.700;2023-05-07T18:09:37;100677.28;;;16.70;100.00
40940;BME280;26666;50.156;7.700;2023-05-07T18:14:39;100686.97;;;16.71;100.00
40940;BME280;26666;50.156;7.700;2023-05-07T18:19:42;100684.13;;;16.73;100.00
40940;BME280;26666;50.156;7.700;2023-05-07T18:24:44;100682.63;;;16.70;100.00
40940;BME280;26666;50.156;7.700;2023-05-07T18:29:46;100683.13;;;16.66;100.00
40940;BME280;26666;50.156;7.700;2023-05-07T18:34:49;100684.25;;;16.63;100.00
40940;BME280;26666;50.156;7.700;2023-05-07T18:39:50;100693.13;;;16.64;100.00
40940;BME280;26666;50.156;7.700;2023-05-07T18:44:52;100702.78;;;16.65;100.00
40940;BME280;26666;50.156;7.700;2023-05-07T18:49:55;100707.59;;;16.61;100.00
40940;BME280;26666;50.156;7.700;2023-05-07T18:54:57;100714.94;;;16.59;100.00
40940;BME280;26666;50.156;7.700;2023-05-07T18:59:59;100723.41;;;16.54;100.00
40940;BME280;26666;50.156;7.700;2023-05-07T19:05:02;100730.94;;;16.59;100.00
40940;BME280;26666;50.156;7.700;2023-05-07T19:10:05;100728.41;;;16.58;100.00
40940;BME280;26666;50.156;7.700;2023-05-07T19:15:10;100719.75;;;16.55;100.00
40940;BME280;26666;50.156;7.700;2023-05-07T19:20:13;100732.41;;;16.53;100.00
40940;BME280;26666;50.156;7.700;2023-05-07T19:25:15;100739.72;;;16.51;100.00
40940;BME280;26666;50.156;7.700;2023-05-07T19:30:17;100755.06;;;16.49;100.00
40940;BME280;26666;50.156;7.700;2023-05-07T19:35:20;100766.56;;;16.50;100.00
40940;BME280;26666;50.156;7.700;2023-05-07T19:40:22;100774.56;;;16.50;100.00
40940;BME280;26666;50.156;7.700;2023-05-07T19:45:24;100765.88;;;16.48;100.00
40940;BME280;26666;50.156;7.700;2023-05-07T19:50:27;100777.88;;;16.44;100.00
40940;BME280;26666;50.156;7.700;2023-05-07T19:55:28;100787.56;;;16.45;100.00
40940;BME280;26666;50.156;7.700;2023-05-07T20:00:30;100791.22;;;16.44;100.00
40940;BME280;26666;50.156;7.700;2023-05-07T20:05:33;100794.88;;;16.43;100.00
40940;BME280;26666;50.156;7.700;2023-05-07T20:10:35;100802.06;;;16.42;100.00
40940;BME280;26666;50.156;7.700;2023-05-07T20:15:36;100789.84;;;16.40;100.00
40940;BME280;26666;50.156;7.700;2023-05-07T20:20:40;100803.88;;;16.42;100.00
40940;BME280;26666;50.156;7.700;2023-05-07T20:25:41;100802.38;;;16.39;100.00
40940;BME280;26666;50.156;7.700;2023-05-07T20:30:43;100801.69;;;16.37;100.00
40940;BME280;26666;50.156;7.700;2023-05-07T20:35:46;100797.53;;;16.34;100.00
40940;BME280;26666;50.156;7.700;2023-05-07T20:40:48;100795.81;;;16.33;100.00
40940;BME280;26666;50.156;7.700;2023-05-07T20:45:57;100805.66;;;16.33;100.00
40940;BME280;26666;50.156;7.700;2023-05-07T20:51:02;100808.47;;;16.31;100.00
40940;BME280;26666;50.156;7.700;2023-05-07T20:56:03;100807.50;;;16.32;100.00
40940;BME280;26666;50.156;7.700;2023-05-07T21:01:05;100813.81;;;16.31;100.00
40940;BME280;26666;50.156;7.700;2023-05-07T21:06:08;100818.16;;;16.32;100.00
40940;BME280;26666;50.156;7.700;2023-05-07T21:11:10;100815.50;;;16.32;100.00
40940;BME280;26666;50.156;7.700;2023-05-07T21:16:12;100810.47;;;16.29;100.00
40940;BME280;26666;50.156;7.700;2023-05-07T21:21:15;100812.09;;;16.22;100.00
40940;BME280;26666;50.156;7.700;2023-05-07T21:31:41;100825.78;;;16.27;100.00
40940;BME280;26666;50.156;7.700;2023-05-07T21:36:44;100827.63;;;16.27;100.00
40940;BME280;26666;50.156;7.700;2023-05-07T21:41:46;100837.28;;;16.28;100.00
40940;BME280;26666;50.156;7.700;2023-05-07T21:46:47;100832.09;;;16.26;100.00
40940;BME280;26666;50.156;7.700;2023-05-07T21:51:50;100824.97;;;16.27;100.00
40940;BME280;26666;50.156;7.700;2023-05-07T21:56:52;100825.94;;;16.26;100.00
40940;BME280;26666;50.156;7.700;2023-05-07T22:01:54;100825.13;;;16.25;100.00
40940;BME280;26666;50.156;7.700;2023-05-07T22:06:57;100830.59;;;16.24;100.00
40940;BME280;26666;50.156;7.700;2023-05-07T22:11:59;100833.25;;;16.24;100.00
40940;BME280;26666;50.156;7.700;2023-05-07T22:17:00;100832.44;;;16.23;100.00
40940;BME280;26666;50.156;7.700;2023-05-07T22:22:03;100826.25;;;16.23;100.00
40940;BME280;26666;50.156;7.700;2023-05-07T22:27:05;100826.44;;;16.21;100.00
40940;BME280;26666;50.156;7.700;2023-05-07T22:32:07;100825.41;;;16.22;100.00
40940;BME280;26666;50.156;7.700;2023-05-07T22:37:13;100837.25;;;16.20;100.00
40940;BME280;26666;50.156;7.700;2023-05-07T22:42:15;100837.53;;;16.16;100.00
40940;BME280;26666;50.156;7.700;2023-05-07T22:47:17;100837.72;;;16.15;100.00
40940;BME280;26666;50.156;7.700;2023-05-07T22:52:20;100839.53;;;16.14;100.00
40940;BME280;26666;50.156;7.700;2023-05-07T22:57:21;100832.38;;;16.15;100.00
40940;BME280;26666;50.156;7.700;2023-05-07T23:02:23;100832.53;;;16.13;100.00
40940;BME280;26666;50.156;7.700;2023-05-07T23:07:26;100823.53;;;16.14;100.00
40940;BME280;26666;50.156;7.700;2023-05-07T23:12:28;100829.00;;;16.13;100.00
40940;BME280;26666;50.156;7.700;2023-05-07T23:17:29;100826.53;;;16.11;100.00
40940;BME280;26666;50.156;7.700;2023-05-07T23:22:33;100829.00;;;16.13;100.00
40940;BME280;26666;50.156;7.700;2023-05-07T23:27:34;100828.34;;;16.11;100.00
40940;BME280;26666;50.156;7.700;2023-05-07T23:32:36;100828.66;;;16.08;100.00
40940;BME280;26666;50.156;7.700;2023-05-07T23:37:40;100827.66;;;16.09;100.00
40940;BME280;26666;50.156;7.700;2023-05-07T23:42:42;100823.34;;;16.08;100.00
40940;BME280;26666;50.156;7.700;2023-05-07T23:47:44;100821.97;;;16.04;100.00
40940;BME280;26666;50.156;7.700;2023-05-07T23:52:47;100828.81;;;16.06;100.00
40940;BME280;26666;50.156;7.700;2023-05-07T23:57:49;100840.09;;;16.00;100.00
